sensor_id;sensor_type;location;lat;lon;timestamp;pressure;altitude;pressure_sealevel;temperature;humidity
72370;BME280;60343;-32.030;115.880;2023-04-07T00:02:26;101336.75;;;19.87;58.66
72370;BME280;60343;-32.030;115.880;2023-04-07T00:05:06;101347.25;;;20.08;57.68
72370;BME280;60343;-32.030;115.880;2023-04-07T00:07:41;101342.16;;;20.43;56.97
72370;BME280;60343;-32.030;115.880;2023-04-07T00:10:16;101346.50;;;20.50;56.58
72370;BME280;60343;-32.030;115.880;2023-04-07T00:12:51;101335.47;;;20.45;56.47
72370;BME280;60343;-32.030;115.880;2023-04-07T00:15:25;101336.81;;;20.36;56.75
72370;BME280;60343;-32.030;115.880;2023-04-07T00:18:00;101335.38;;;20.27;57.12
72370;BME280;60343;-32.030;115.880;2023-04-07T00:20:40;101339.22;;;20.20;57.53
72370;BME280;60343;-32.030;115.880;2023-04-07T00:23:14;101344.94;;;20.11;57.76
72370;BME280;60343;-32.030;115.880;2023-04-07T00:25:49;101355.19;;;20.09;57.71
72370;BME280;60343;-32.030;115.880;2023-04-07T00:28:23;101352.78;;;20.01;57.62
72370;BME280;60343;-32.030;115.880;2023-04-07T00:30:58;101341.28;;;19.99;57.84
72370;BME280;60343;-32.030;115.880;2023-04-07T00:33:32;101344.44;;;19.96;58.48
72370;BME280;60343;-32.030;115.880;2023-04-07T00:36:12;101342.28;;;20.05;57.32
72370;BME280;60343;-32.030;115.880;2023-04-07T00:38:47;101336.66;;;20.00;58.10
72370;BME280;60343;-32.030;115.880;2023-04-07T00:41:21;101348.38;;;20.00;57.96
72370;BME280;60343;-32.030;115.880;2023-04-07T00:43:56;101348.47;;;20.12;57.53
72370;BME280;60343;-32.030;115.880;2023-04-07T00:46:30;101338.50;;;20.06;57.88
72370;BME280;60343;-32.030;115.880;2023-04-07T00:49:05;101339.88;;;20.15;57.76
72370;BME280;60343;-32.030;115.880;2023-04-07T00:51:46;101333.56;;;20.21;57.14
72370;BME280;60343;-32.030;115.880;2023-04-07T00:54:21;101338.06;;;20.34;56.66
72370;BME280;60343;-32.030;115.880;2023-04-07T00:56:57;101334.84;;;20.43;56.99
72370;BME280;60343;-32.030;115.880;2023-04-07T00:59:32;101332.13;;;20.43;56.98
72370;BME280;60343;-32.030;115.880;2023-04-07T01:02:11;101327.56;;;20.37;56.84
72370;BME280;60343;-32.030;115.880;2023-04-07T01:04:53;101345.63;;;20.32;57.51
72370;BME280;60343;-32.030;115.880;2023-04-07T01:07:38;101332.22;;;20.37;57.18
72370;BME280;60343;-32.030;115.880;2023-04-07T01:10:14;101320.97;;;20.27;57.69
72370;BME280;60343;-32.030;115.880;2023-04-07T01:12:56;101319.56;;;20.42;56.80
72370;BME280;60343;-32.030;115.880;2023-04-07T01:15:34;101327.88;;;20.47;57.07
72370;BME280;60343;-32.030;115.880;2023-04-07T01:18:14;101331.22;;;20.49;57.20
72370;BME280;60343;-32.030;115.880;2023-04-07T01:21:16;101319.59;;;20.61;56.36
72370;BME280;60343;-32.030;115.880;2023-04-07T01:27:20;101318.84;;;21.68;53.13
72370;BME280;60343;-32.030;115.880;2023-04-07T01:30:01;101318.44;;;21.82;52.79
72370;BME280;60343;-32.030;115.880;2023-04-07T01:32:36;101321.03;;;21.89;52.76
72370;BME280;60343;-32.030;115.880;2023-04-07T01:35:13;101311.31;;;21.93;52.45
72370;BME280;60343;-32.030;115.880;2023-04-07T01:37:49;101311.25;;;22.58;50.45
72370;BME280;60343;-32.030;115.880;2023-04-07T01:40:25;101308.38;;;22.64;50.68
72370;BME280;60343;-32.030;115.880;2023-04-07T01:43:01;101304.72;;;22.82;50.03
72370;BME280;60343;-32.030;115.880;2023-04-07T01:45:42;101299.03;;;23.85;47.45
72370;BME280;60343;-32.030;115.880;2023-04-07T01:48:17;101296.31;;;23.69;47.40
72370;BME280;60343;-32.030;115.880;2023-04-07T01:50:52;101295.47;;;23.68;47.40
72370;BME280;60343;-32.030;115.880;2023-04-07T01:53:28;101297.88;;;24.15;46.72
72370;BME280;60343;-32.030;115.880;2023-04-07T01:56:04;101303.84;;;23.78;47.22
72370;BME280;60343;-32.030;115.880;2023-04-07T01:58:38;101301.78;;;24.35;47.59
72370;BME280;60343;-32.030;115.880;2023-04-07T02:01:19;101291.94;;;24.56;45.94
72370;BME280;60343;-32.030;115.880;2023-04-07T02:04:06;101282.53;;;24.30;46.46
72370;BME280;60343;-32.030;115.880;2023-04-07T02:06:46;101268.06;;;25.17;44.04
72370;BME280;60343;-32.030;115.880;2023-04-07T02:09:24;101272.69;;;26.02;43.48
72370;BME280;60343;-32.030;115.880;2023-04-07T02:12:04;101282.13;;;26.16;43.32
72370;BME280;60343;-32.030;115.880;2023-04-07T02:14:41;101283.69;;;25.43;43.52
72370;BME280;60343;-32.030;115.880;2023-04-07T02:17:22;101277.31;;;24.67;45.41
72370;BME280;60343;-32.030;115.880;2023-04-07T02:19:57;101288.19;;;24.07;46.98
72370;BME280;60343;-32.030;115.880;2023-04-07T02:22:33;101291.09;;;23.67;47.38
72370;BME280;60343;-32.030;115.880;2023-04-07T02:25:21;101298.28;;;23.28;47.95
72370;BME280;60343;-32.030;115.880;2023-04-07T02:27:57;101288.84;;;23.07;49.22
72370;BME280;60343;-32.030;115.880;2023-04-07T02:30:32;101284.84;;;22.98;49.08
72370;BME280;60343;-32.030;115.880;2023-04-07T02:33:12;101281.97;;;23.78;47.10
72370;BME280;60343;-32.030;115.880;2023-04-07T02:35:47;101262.63;;;24.35;46.52
72370;BME280;60343;-32.030;115.880;2023-04-07T02:38:21;101271.78;;;24.84;44.43
72370;BME280;60343;-32.030;115.880;2023-04-07T02:40:55;101262.31;;;25.45;43.11
72370;BME280;60343;-32.030;115.880;2023-04-07T02:43:30;101265.28;;;25.39;43.49
72370;BME280;60343;-32.030;115.880;2023-04-07T02:46:04;101263.75;;;24.77;44.58
72370;BME280;60343;-32.030;115.880;2023-04-07T02:48:44;101262.47;;;24.25;46.14
72370;BME280;60343;-32.030;115.880;2023-04-07T02:51:20;101264.38;;;23.74;46.52
72370;BME280;60343;-32.030;115.880;2023-04-07T02:53:55;101278.41;;;23.33;47.93
72370;BME280;60343;-32.030;115.880;2023-04-07T02:56:29;101272.16;;;23.21;48.27
72370;BME280;60343;-32.030;115.880;2023-04-07T02:59:04;101278.22;;;23.23;48.77
72370;BME280;60343;-32.030;115.880;2023-04-07T03:01:38;101261.72;;;23.46;48.22
72370;BME280;60343;-32.030;115.880;2023-04-07T03:04:18;101262.91;;;23.67;48.03
72370;BME280;60343;-32.030;115.880;2023-04-07T03:06:53;101252.38;;;24.25;46.59
72370;BME280;60343;-32.030;115.880;2023-04-07T03:09:28;101255.16;;;24.69;45.22
72370;BME280;60343;-32.030;115.880;2023-04-07T03:12:03;101260.56;;;25.07;46.38
72370;BME280;60343;-32.030;115.880;2023-04-07T03:14:43;101261.22;;;25.46;44.11
72370;BME280;60343;-32.030;115.880;2023-04-07T03:17:26;101256.69;;;25.30;45.00
72370;BME280;60343;-32.030;115.880;2023-04-07T03:20:07;101252.59;;;26.28;41.30
72370;BME280;60343;-32.030;115.880;2023-04-07T03:22:42;101261.00;;;27.36;40.41
72370;BME280;60343;-32.030;115.880;2023-04-07T03:25:17;101257.13;;;27.32;38.44
72370;BME280;60343;-32.030;115.880;2023-04-07T03:27:52;101253.34;;;26.61;40.01
72370;BME280;60343;-32.030;115.880;2023-04-07T03:30:26;101244.06;;;25.88;41.54
72370;BME280;60343;-32.030;115.880;2023-04-07T03:33:01;101237.72;;;25.24;43.54
72370;BME280;60343;-32.030;115.880;2023-04-07T03:35:42;101237.81;;;24.85;44.20
72370;BME280;60343;-32.030;115.880;2023-04-07T03:38:16;101233.88;;;24.54;44.90
72370;BME280;60343;-32.030;115.880;2023-04-07T03:40:51;101232.47;;;24.73;44.83
72370;BME280;60343;-32.030;115.880;2023-04-07T03:43:27;101235.78;;;24.75;45.16
72370;BME280;60343;-32.030;115.880;2023-04-07T03:46:01;101236.13;;;24.79;45.17
72370;BME280;60343;-32.030;115.880;2023-04-07T03:48:36;101236.34;;;24.77;44.83
72370;BME280;60343;-32.030;115.880;2023-04-07T03:51:16;101230.44;;;24.64;45.23
72370;BME280;60343;-32.030;115.880;2023-04-07T03:53:50;101237.00;;;24.63;45.67
72370;BME280;60343;-32.030;115.880;2023-04-07T03:56:38;101231.56;;;24.46;46.76
72370;BME280;60343;-32.030;115.880;2023-04-07T03:59:20;101227.00;;;24.52;46.34
72370;BME280;60343;-32.030;115.880;2023-04-07T04:01:54;101219.88;;;24.51;45.58
72370;BME280;60343;-32.030;115.880;2023-04-07T04:04:32;101227.59;;;24.54;45.40
72370;BME280;60343;-32.030;115.880;2023-04-07T04:07:28;101226.09;;;24.46;45.32
72370;BME280;60343;-32.030;115.880;2023-04-07T04:10:08;101217.13;;;24.29;45.27
72370;BME280;60343;-32.030;115.880;2023-04-07T04:12:43;101220.09;;;24.11;46.10
72370;BME280;60343;-32.030;115.880;2023-04-07T04:15:18;101220.94;;;24.11;45.98
72370;BME280;60343;-32.030;115.880;2023-04-07T04:17:52;101214.84;;;23.87;47.26
72370;BME280;60343;-32.030;115.880;2023-04-07T04:20:27;101205.50;;;23.67;47.68
72370;BME280;60343;-32.030;115.880;2023-04-07T04:23:07;101213.28;;;23.58;47.77
72370;BME280;60343;-32.030;115.880;2023-04-07T04:25:42;101206.56;;;23.49;50.28
72370;BME280;60343;-32.030;115.880;2023-04-07T04:28:17;101203.94;;;23.26;51.75
72370;BME280;60343;-32.030;115.880;2023-04-07T04:30:51;101213.53;;;23.12;54.21
72370;BME280;60343;-32.030;115.880;2023-04-07T04:33:25;101210.75;;;22.95;53.78
72370;BME280;60343;-32.030;115.880;2023-04-07T04:36:00;101209.56;;;23.02;53.72
72370;BME280;60343;-32.030;115.880;2023-04-07T04:38:40;101198.44;;;23.09;53.72
72370;BME280;60343;-32.030;115.880;2023-04-07T04:41:15;101200.75;;;23.29;54.35
72370;BME280;60343;-32.030;115.880;2023-04-07T04:43:49;101200.25;;;23.32;53.05
72370;BME280;60343;-32.030;115.880;2023-04-07T04:46:24;101205.19;;;23.35;52.38
72370;BME280;60343;-32.030;115.880;2023-04-07T04:48:58;101205.72;;;23.32;51.44
72370;BME280;60343;-32.030;115.880;2023-04-07T04:51:33;101213.63;;;23.17;51.86
72370;BME280;60343;-32.030;115.880;2023-04-07T04:54:13;101208.56;;;23.08;53.09
72370;BME280;60343;-32.030;115.880;2023-04-07T04:56:48;101217.88;;;22.96;53.26
72370;BME280;60343;-32.030;115.880;2023-04-07T04:59:23;101227.09;;;22.78;53.10
72370;BME280;60343;-32.030;115.880;2023-04-07T05:01:58;101218.69;;;22.68;54.70
72370;BME280;60343;-32.030;115.880;2023-04-07T05:04:33;101211.91;;;22.59;54.94
72370;BME280;60343;-32.030;115.880;2023-04-07T05:07:08;101218.03;;;22.38;57.38
72370;BME280;60343;-32.030;115.880;2023-04-07T05:09:48;101225.03;;;22.34;58.52
72370;BME280;60343;-32.030;115.880;2023-04-07T05:12:22;101212.81;;;22.24;58.36
72370;BME280;60343;-32.030;115.880;2023-04-07T05:14:57;101215.44;;;22.19;57.59
72370;BME280;60343;-32.030;115.880;2023-04-07T05:17:31;101216.41;;;22.02;58.64
72370;BME280;60343;-32.030;115.880;2023-04-07T05:20:07;101216.38;;;21.90;58.94
72370;BME280;60343;-32.030;115.880;2023-04-07T05:22:42;101231.31;;;21.88;60.03
72370;BME280;60343;-32.030;115.880;2023-04-07T05:25:22;101235.22;;;21.80;57.75
72370;BME280;60343;-32.030;115.880;2023-04-07T05:27:57;101231.78;;;21.84;56.07
72370;BME280;60343;-32.030;115.880;2023-04-07T05:30:32;101212.00;;;21.89;56.56
72370;BME280;60343;-32.030;115.880;2023-04-07T05:33:07;101204.78;;;21.95;57.19
72370;BME280;60343;-32.030;115.880;2023-04-07T05:35:43;101212.38;;;21.93;57.77
72370;BME280;60343;-32.030;115.880;2023-04-07T05:38:20;101205.97;;;22.10;57.02
72370;BME280;60343;-32.030;115.880;2023-04-07T05:41:00;101197.78;;;22.10;57.02
72370;BME280;60343;-32.030;115.880;2023-04-07T05:43:35;101184.94;;;22.34;56.07
72370;BME280;60343;-32.030;115.880;2023-04-07T05:46:10;101175.97;;;22.62;55.59
72370;BME280;60343;-32.030;115.880;2023-04-07T05:48:44;101188.31;;;23.21;55.23
72370;BME280;60343;-32.030;115.880;2023-04-07T05:51:19;101191.31;;;23.36;53.67
72370;BME280;60343;-32.030;115.880;2023-04-07T05:53:54;101192.47;;;23.24;53.39
72370;BME280;60343;-32.030;115.880;2023-04-07T05:56:34;101206.00;;;23.02;53.78
72370;BME280;60343;-32.030;115.880;2023-04-07T05:59:09;101219.97;;;22.77;54.35
72370;BME280;60343;-32.030;115.880;2023-04-07T06:01:43;101226.78;;;22.40;54.47
72370;BME280;60343;-32.030;115.880;2023-04-07T06:04:17;101217.59;;;22.17;55.67
72370;BME280;60343;-32.030;115.880;2023-04-07T06:06:52;101211.91;;;21.96;56.78
72370;BME280;60343;-32.030;115.880;2023-04-07T06:09:27;101212.94;;;21.83;58.53
72370;BME280;60343;-32.030;115.880;2023-04-07T06:12:07;101213.03;;;21.88;57.52
72370;BME280;60343;-32.030;115.880;2023-04-07T06:14:45;101211.69;;;21.97;59.11
72370;BME280;60343;-32.030;115.880;2023-04-07T06:17:20;101214.88;;;21.94;60.90
72370;BME280;60343;-32.030;115.880;2023-04-07T06:19:54;101213.66;;;21.67;61.76
72370;BME280;60343;-32.030;115.880;2023-04-07T06:22:28;101219.88;;;21.32;62.75
72370;BME280;60343;-32.030;115.880;2023-04-07T06:25:03;101218.38;;;21.18;63.84
72370;BME280;60343;-32.030;115.880;2023-04-07T06:27:43;101209.34;;;21.06;64.62
72370;BME280;60343;-32.030;115.880;2023-04-07T06:30:18;101198.81;;;21.10;64.12
72370;BME280;60343;-32.030;115.880;2023-04-07T06:32:53;101198.19;;;21.08;63.89
72370;BME280;60343;-32.030;115.880;2023-04-07T06:35:27;101203.75;;;21.01;63.96
72370;BME280;60343;-32.030;115.880;2023-04-07T06:38:02;101204.91;;;20.93;64.13
72370;BME280;60343;-32.030;115.880;2023-04-07T06:40:38;101198.03;;;20.91;63.95
72370;BME280;60343;-32.030;115.880;2023-04-07T06:43:18;101193.00;;;21.06;63.80
72370;BME280;60343;-32.030;115.880;2023-04-07T06:45:52;101192.06;;;21.12;63.32
72370;BME280;60343;-32.030;115.880;2023-04-07T06:48:27;101206.59;;;21.36;61.88
72370;BME280;60343;-32.030;115.880;2023-04-07T06:51:01;101211.25;;;21.47;61.78
72370;BME280;60343;-32.030;115.880;2023-04-07T06:53:36;101202.13;;;21.53;62.04
72370;BME280;60343;-32.030;115.880;2023-04-07T06:56:11;101195.28;;;21.62;62.77
72370;BME280;60343;-32.030;115.880;2023-04-07T06:58:51;101182.13;;;21.59;62.09
72370;BME280;60343;-32.030;115.880;2023-04-07T07:01:26;101183.31;;;21.52;63.04
72370;BME280;60343;-32.030;115.880;2023-04-07T07:04:00;101185.91;;;21.58;62.01
72370;BME280;60343;-32.030;115.880;2023-04-07T07:06:35;101184.13;;;21.40;62.75
72370;BME280;60343;-32.030;115.880;2023-04-07T07:09:10;101189.34;;;21.42;63.02
72370;BME280;60343;-32.030;115.880;2023-04-07T07:11:44;101196.91;;;21.40;61.72
72370;BME280;60343;-32.030;115.880;2023-04-07T07:14:24;101196.03;;;21.28;61.54
72370;BME280;60343;-32.030;115.880;2023-04-07T07:16:59;101197.22;;;21.20;62.37
72370;BME280;60343;-32.030;115.880;2023-04-07T07:19:33;101199.50;;;21.05;64.32
72370;BME280;60343;-32.030;115.880;2023-04-07T07:22:08;101207.13;;;20.85;65.92
72370;BME280;60343;-32.030;115.880;2023-04-07T07:24:43;101223.78;;;20.77;66.54
72370;BME280;60343;-32.030;115.880;2023-04-07T07:27:17;101226.13;;;20.55;67.40
72370;BME280;60343;-32.030;115.880;2023-04-07T07:29:57;101236.88;;;20.50;68.29
72370;BME280;60343;-32.030;115.880;2023-04-07T07:32:32;101223.56;;;20.60;68.10
72370;BME280;60343;-32.030;115.880;2023-04-07T07:35:07;101213.94;;;20.76;67.77
72370;BME280;60343;-32.030;115.880;2023-04-07T07:37:41;101208.38;;;21.01;67.55
72370;BME280;60343;-32.030;115.880;2023-04-07T07:40:16;101214.47;;;21.67;66.99
72370;BME280;60343;-32.030;115.880;2023-04-07T07:42:51;101212.22;;;22.34;61.67
72370;BME280;60343;-32.030;115.880;2023-04-07T07:48:04;101218.47;;;22.58;60.27
72370;BME280;60343;-32.030;115.880;2023-04-07T07:50:39;101222.22;;;22.68;60.09
72370;BME280;60343;-32.030;115.880;2023-04-07T07:53:15;101229.44;;;22.86;57.85
72370;BME280;60343;-32.030;115.880;2023-04-07T07:55:49;101238.22;;;22.88;58.28
72370;BME280;60343;-32.030;115.880;2023-04-07T07:58:24;101245.69;;;22.93;58.42
72370;BME280;60343;-32.030;115.880;2023-04-07T08:01:04;101242.88;;;22.76;58.46
72370;BME280;60343;-32.030;115.880;2023-04-07T08:03:39;101247.34;;;22.42;59.28
72370;BME280;60343;-32.030;115.880;2023-04-07T08:06:13;101242.47;;;22.21;59.68
72370;BME280;60343;-32.030;115.880;2023-04-07T08:08:48;101241.41;;;21.99;59.70
72370;BME280;60343;-32.030;115.880;2023-04-07T08:11:23;101235.69;;;21.77;61.04
72370;BME280;60343;-32.030;115.880;2023-04-07T08:13:57;101243.50;;;21.62;61.47
72370;BME280;60343;-32.030;115.880;2023-04-07T08:16:37;101261.59;;;21.56;61.34
72370;BME280;60343;-32.030;115.880;2023-04-07T08:19:12;101253.53;;;21.50;62.09
72370;BME280;60343;-32.030;115.880;2023-04-07T08:21:47;101252.22;;;21.40;62.33
72370;BME280;60343;-32.030;115.880;2023-04-07T08:24:21;101246.84;;;21.34;61.84
72370;BME280;60343;-32.030;115.880;2023-04-07T08:26:56;101257.72;;;21.22;62.70
72370;BME280;60343;-32.030;115.880;2023-04-07T08:29:30;101256.34;;;21.31;62.19
72370;BME280;60343;-32.030;115.880;2023-04-07T08:32:10;101273.09;;;21.47;62.63
72370;BME280;60343;-32.030;115.880;2023-04-07T08:34:45;101284.81;;;21.59;61.29
72370;BME280;60343;-32.030;115.880;2023-04-07T08:37:20;101284.69;;;21.42;61.95
72370;BME280;60343;-32.030;115.880;2023-04-07T08:39:54;101285.69;;;21.29;61.79
72370;BME280;60343;-32.030;115.880;2023-04-07T08:42:30;101290.56;;;21.27;62.14
72370;BME280;60343;-32.030;115.880;2023-04-07T08:45:06;101287.28;;;21.19;62.06
72370;BME280;60343;-32.030;115.880;2023-04-07T08:47:47;101306.94;;;21.03;62.63
72370;BME280;60343;-32.030;115.880;2023-04-07T08:50:26;101308.19;;;20.88;62.85
72370;BME280;60343;-32.030;115.880;2023-04-07T08:53:01;101313.72;;;20.82;63.21
72370;BME280;60343;-32.030;115.880;2023-04-07T08:55:39;101326.72;;;20.80;63.39
72370;BME280;60343;-32.030;115.880;2023-04-07T08:58:14;101332.94;;;20.87;63.32
72370;BME280;60343;-32.030;115.880;2023-04-07T09:00:49;101332.59;;;20.95;63.23
72370;BME280;60343;-32.030;115.880;2023-04-07T09:03:29;101331.38;;;21.09;62.37
72370;BME280;60343;-32.030;115.880;2023-04-07T09:06:04;101328.41;;;21.17;62.18
72370;BME280;60343;-32.030;115.880;2023-04-07T09:08:39;101326.09;;;21.14;61.05
72370;BME280;60343;-32.030;115.880;2023-04-07T09:11:13;101325.19;;;21.02;61.09
72370;BME280;60343;-32.030;115.880;2023-04-07T09:13:49;101322.16;;;21.10;61.31
72370;BME280;60343;-32.030;115.880;2023-04-07T09:16:24;101311.88;;;21.12;60.83
72370;BME280;60343;-32.030;115.880;2023-04-07T09:19:04;101315.22;;;20.96;61.23
72370;BME280;60343;-32.030;115.880;2023-04-07T09:21:48;101322.84;;;20.87;61.56
72370;BME280;60343;-32.030;115.880;2023-04-07T09:24:23;101315.50;;;20.88;62.05
72370;BME280;60343;-32.030;115.880;2023-04-07T09:27:13;101331.53;;;20.78;61.90
72370;BME280;60343;-32.030;115.880;2023-04-07T09:29:48;101320.50;;;20.73;62.18
72370;BME280;60343;-32.030;115.880;2023-04-07T09:32:35;101324.31;;;20.72;62.23
72370;BME280;60343;-32.030;115.880;2023-04-07T09:35:16;101315.91;;;20.55;62.57
72370;BME280;60343;-32.030;115.880;2023-04-07T09:38:05;101328.03;;;20.34;63.24
72370;BME280;60343;-32.030;115.880;2023-04-07T09:40:40;101321.03;;;20.20;63.87
72370;BME280;60343;-32.030;115.880;2023-04-07T09:43:16;101328.34;;;19.95;64.42
72370;BME280;60343;-32.030;115.880;2023-04-07T09:45:51;101332.22;;;19.81;65.44
72370;BME280;60343;-32.030;115.880;2023-04-07T09:48:27;101338.16;;;19.71;65.45
72370;BME280;60343;-32.030;115.880;2023-04-07T09:51:11;101339.44;;;19.62;65.54
72370;BME280;60343;-32.030;115.880;2023-04-07T09:53:49;101344.31;;;19.53;65.80
72370;BME280;60343;-32.030;115.880;2023-04-07T09:56:24;101348.94;;;19.40;66.18
72370;BME280;60343;-32.030;115.880;2023-04-07T09:59:03;101356.34;;;19.26;67.21
72370;BME280;60343;-32.030;115.880;2023-04-07T10:01:38;101366.38;;;19.19;66.87
72370;BME280;60343;-32.030;115.880;2023-04-07T10:04:12;101376.84;;;19.09;67.76
72370;BME280;60343;-32.030;115.880;2023-04-07T10:06:53;101372.72;;;19.00;67.62
72370;BME280;60343;-32.030;115.880;2023-04-07T10:09:30;101368.34;;;18.92;67.93
72370;BME280;60343;-32.030;115.880;2023-04-07T10:12:04;101372.53;;;18.81;68.56
72370;BME280;60343;-32.030;115.880;2023-04-07T10:14:40;101384.88;;;18.77;68.96
72370;BME280;60343;-32.030;115.880;2023-04-07T10:17:16;101374.28;;;18.63;69.24
72370;BME280;60343;-32.030;115.880;2023-04-07T10:19:51;101381.56;;;18.62;69.26
72370;BME280;60343;-32.030;115.880;2023-04-07T10:22:32;101378.66;;;18.57;69.74
72370;BME280;60343;-32.030;115.880;2023-04-07T10:25:08;101368.00;;;18.36;70.04
72370;BME280;60343;-32.030;115.880;2023-04-07T10:27:46;101377.81;;;18.43;69.67
72370;BME280;60343;-32.030;115.880;2023-04-07T10:30:25;101387.00;;;18.29;70.46
72370;BME280;60343;-32.030;115.880;2023-04-07T10:33:03;101386.56;;;18.32;70.26
72370;BME280;60343;-32.030;115.880;2023-04-07T10:36:04;101385.72;;;18.32;70.51
72370;BME280;60343;-32.030;115.880;2023-04-07T10:41:53;101399.91;;;18.21;70.53
72370;BME280;60343;-32.030;115.880;2023-04-07T10:44:50;101403.88;;;18.12;70.65
72370;BME280;60343;-32.030;115.880;2023-04-07T10:47:27;101409.72;;;18.22;69.58
72370;BME280;60343;-32.030;115.880;2023-04-07T10:50:17;101420.13;;;18.31;68.88
72370;BME280;60343;-32.030;115.880;2023-04-07T10:53:05;101422.03;;;18.24;68.75
72370;BME280;60343;-32.030;115.880;2023-04-07T10:55:47;101424.06;;;18.16;69.12
72370;BME280;60343;-32.030;115.880;2023-04-07T10:58:36;101429.72;;;18.14;68.68
72370;BME280;60343;-32.030;115.880;2023-04-07T11:01:21;101431.19;;;18.30;67.92
72370;BME280;60343;-32.030;115.880;2023-04-07T11:03:59;101433.91;;;18.30;68.05
72370;BME280;60343;-32.030;115.880;2023-04-07T11:06:37;101436.81;;;18.22;68.12
72370;BME280;60343;-32.030;115.880;2023-04-07T11:09:18;101441.63;;;18.20;68.05
72370;BME280;60343;-32.030;115.880;2023-04-07T11:11:58;101430.38;;;18.29;68.08
72370;BME280;60343;-32.030;115.880;2023-04-07T11:14:33;101439.53;;;18.28;68.32
72370;BME280;60343;-32.030;115.880;2023-04-07T11:17:14;101438.91;;;18.33;67.87
72370;BME280;60343;-32.030;115.880;2023-04-07T11:19:52;101446.41;;;18.31;68.26
72370;BME280;60343;-32.030;115.880;2023-04-07T11:22:27;101444.94;;;18.15;68.42
72370;BME280;60343;-32.030;115.880;2023-04-07T11:25:04;101450.97;;;18.17;68.57
72370;BME280;60343;-32.030;115.880;2023-04-07T11:28:00;101454.53;;;18.24;68.42
72370;BME280;60343;-32.030;115.880;2023-04-07T11:30:36;101452.66;;;18.18;69.18
72370;BME280;60343;-32.030;115.880;2023-04-07T11:33:15;101455.13;;;18.07;69.35
72370;BME280;60343;-32.030;115.880;2023-04-07T11:35:54;101456.38;;;18.04;69.19
72370;BME280;60343;-32.030;115.880;2023-04-07T11:38:36;101452.19;;;18.01;69.75
72370;BME280;60343;-32.030;115.880;2023-04-07T11:41:13;101458.47;;;18.02;69.85
72370;BME280;60343;-32.030;115.880;2023-04-07T11:44:03;101462.44;;;18.13;69.57
72370;BME280;60343;-32.030;115.880;2023-04-07T11:46:52;101463.31;;;18.20;69.03
72370;BME280;60343;-32.030;115.880;2023-04-07T11:49:27;101469.94;;;18.17;69.20
72370;BME280;60343;-32.030;115.880;2023-04-07T11:52:04;101469.94;;;18.04;69.33
72370;BME280;60343;-32.030;115.880;2023-04-07T11:54:42;101483.03;;;17.94;70.16
72370;BME280;60343;-32.030;115.880;2023-04-07T11:57:25;101483.25;;;17.99;69.90
72370;BME280;60343;-32.030;115.880;2023-04-07T12:00:13;101482.66;;;18.04;69.88
72370;BME280;60343;-32.030;115.880;2023-04-07T12:02:48;101484.94;;;18.00;69.45
72370;BME280;60343;-32.030;115.880;2023-04-07T12:05:23;101491.38;;;17.92;70.30
72370;BME280;60343;-32.030;115.880;2023-04-07T12:07:57;101479.91;;;17.97;70.15
72370;BME280;60343;-32.030;115.880;2023-04-07T12:10:32;101493.25;;;17.98;70.03
72370;BME280;60343;-32.030;115.880;2023-04-07T12:13:07;101487.63;;;17.93;69.77
72370;BME280;60343;-32.030;115.880;2023-04-07T12:15:47;101492.66;;;18.10;69.98
72370;BME280;60343;-32.030;115.880;2023-04-07T12:18:22;101496.84;;;18.12;69.66
72370;BME280;60343;-32.030;115.880;2023-04-07T12:20:56;101495.59;;;18.15;69.53
72370;BME280;60343;-32.030;115.880;2023-04-07T12:23:31;101499.97;;;18.09;69.11
72370;BME280;60343;-32.030;115.880;2023-04-07T12:26:05;101497.25;;;18.09;68.88
72370;BME280;60343;-32.030;115.880;2023-04-07T12:28:40;101507.84;;;17.97;69.51
72370;BME280;60343;-32.030;115.880;2023-04-07T12:31:20;101504.75;;;18.00;69.74
72370;BME280;60343;-32.030;115.880;2023-04-07T12:33:55;101513.22;;;17.91;70.14
72370;BME280;60343;-32.030;115.880;2023-04-07T12:36:29;101510.78;;;18.02;69.38
72370;BME280;60343;-32.030;115.880;2023-04-07T12:39:04;101510.78;;;18.02;69.17
72370;BME280;60343;-32.030;115.880;2023-04-07T12:41:40;101516.38;;;17.94;69.35
72370;BME280;60343;-32.030;115.880;2023-04-07T12:44:15;101506.44;;;18.15;69.07
72370;BME280;60343;-32.030;115.880;2023-04-07T12:46:56;101509.94;;;18.02;68.93
72370;BME280;60343;-32.030;115.880;2023-04-07T12:49:30;101513.47;;;17.89;69.39
72370;BME280;60343;-32.030;115.880;2023-04-07T12:52:04;101508.22;;;17.88;69.74
72370;BME280;60343;-32.030;115.880;2023-04-07T12:54:39;101513.19;;;17.78;70.17
72370;BME280;60343;-32.030;115.880;2023-04-07T12:57:13;101512.78;;;17.81;70.19
72370;BME280;60343;-32.030;115.880;2023-04-07T12:59:49;101508.47;;;17.93;69.57
72370;BME280;60343;-32.030;115.880;2023-04-07T13:02:30;101496.97;;;17.91;69.62
72370;BME280;60343;-32.030;115.880;2023-04-07T13:05:05;101501.94;;;17.81;70.08
72370;BME280;60343;-32.030;115.880;2023-04-07T13:07:39;101509.03;;;17.82;70.12
72370;BME280;60343;-32.030;115.880;2023-04-07T13:10:14;101514.44;;;17.75;70.08
72370;BME280;60343;-32.030;115.880;2023-04-07T13:12:48;101515.88;;;17.71;70.13
72370;BME280;60343;-32.030;115.880;2023-04-07T13:15:22;101522.53;;;17.69;70.30
72370;BME280;60343;-32.030;115.880;2023-04-07T13:18:03;101518.41;;;17.79;70.07
72370;BME280;60343;-32.030;115.880;2023-04-07T13:20:37;101523.59;;;17.81;70.14